Ireland, Indiana
Current Conditions -  °F | °C
As of 5:55 PM on Friday 24 Oct 2014 (Local Time) from KHNB Reporting Station
Clear Clear  
Wind Chill: 64°   Ceiling: Unl
Heat Index: 64°   Visibility: 10mi
Dew Point: 48°   Wind: 5mph
Humidity: 56%   Direction: 240°WSW
Pressure: 30.05"   Gusts: NA
Location:  38.41°N, 87°W
Report Text: KHNB 242255Z AUTO 24004KT 10SM CLR 18/09 A3005 RMK AO1
Loading
Personal Weather Stations






























Interactive Weather Map New forecast layout! Learn more

10-Day Weather Forecast

Advertisements
Track Severe Weather on mobile